sensor_id;sensor_type;location;lat;lon;timestamp;pressure;altitude;pressure_sealevel;temperature;humidity
55424;BME280;41294;42.666;23.350;2023-02-13T00:01:41;96761.97;;;1.08;99.73
55424;BME280;41294;42.666;23.350;2023-02-13T00:04:06;96763.06;;;1.07;100.00
55424;BME280;41294;42.666;23.350;2023-02-13T00:06:31;96767.06;;;1.04;100.00
55424;BME280;41294;42.666;23.350;2023-02-13T00:08:57;96775.06;;;0.99;100.00
55424;BME280;41294;42.666;23.350;2023-02-13T00:11:22;96774.09;;;1.04;100.00
55424;BME280;41294;42.666;23.350;2023-02-13T00:13:48;96769.19;;;0.87;100.00
55424;BME280;41294;42.666;23.350;2023-02-13T00:16:13;96771.75;;;0.99;100.00
55424;BME280;41294;42.666;23.350;2023-02-13T00:18:38;96760.28;;;1.00;100.00
55424;BME280;41294;42.666;23.350;2023-02-13T00:21:07;96773.28;;;0.88;100.00
55424;BME280;41294;42.666;23.350;2023-02-13T00:23:34;96777.41;;;0.89;100.00
55424;BME280;41294;42.666;23.350;2023-02-13T00:26:03;96776.31;;;0.90;100.00
55424;BME280;41294;42.666;23.350;2023-02-13T00:28:29;96778.00;;;0.98;100.00
55424;BME280;41294;42.666;23.350;2023-02-13T00:31:02;96771.59;;;1.07;100.00
55424;BME280;41294;42.666;23.350;2023-02-13T00:33:28;96782.41;;;1.25;99.79
55424;BME280;41294;42.666;23.350;2023-02-13T00:36:04;96779.41;;;1.23;99.99
55424;BME280;41294;42.666;23.350;2023-02-13T00:38:31;96778.97;;;1.21;100.00
55424;BME280;41294;42.666;23.350;2023-02-13T00:40:56;96776.56;;;1.28;99.56
55424;BME280;41294;42.666;23.350;2023-02-13T00:43:22;96771.47;;;1.31;99.38
55424;BME280;41294;42.666;23.350;2023-02-13T00:45:47;96782.25;;;1.18;100.00
55424;BME280;41294;42.666;23.350;2023-02-13T00:48:12;96780.91;;;1.24;100.00
55424;BME280;41294;42.666;23.350;2023-02-13T00:50:38;96791.09;;;1.17;100.00
55424;BME280;41294;42.666;23.350;2023-02-13T00:53:03;96782.25;;;1.18;99.98
55424;BME280;41294;42.666;23.350;2023-02-13T00:55:28;96777.16;;;1.21;100.00
55424;BME280;41294;42.666;23.350;2023-02-13T00:57:54;96783.94;;;1.26;99.80
55424;BME280;41294;42.666;23.350;2023-02-13T01:00:19;96792.53;;;1.30;99.74
55424;BME280;41294;42.666;23.350;2023-02-13T01:02:45;96794.56;;;1.36;99.90
55424;BME280;41294;42.666;23.350;2023-02-13T01:05:12;96787.94;;;1.39;99.82
55424;BME280;41294;42.666;23.350;2023-02-13T01:07:38;96794.91;;;1.35;100.00
55424;BME280;41294;42.666;23.350;2023-02-13T01:10:04;96795.22;;;1.33;99.47
55424;BME280;41294;42.666;23.350;2023-02-13T01:12:29;96790.97;;;1.41;99.39
55424;BME280;41294;42.666;23.350;2023-02-13T01:14:55;96790.22;;;1.40;98.93
55424;BME280;41294;42.666;23.350;2023-02-13T01:17:20;96788.72;;;1.39;99.80
55424;BME280;41294;42.666;23.350;2023-02-13T01:19:46;96787.38;;;1.45;99.19
55424;BME280;41294;42.666;23.350;2023-02-13T01:22:11;96789.53;;;1.43;98.85
55424;BME280;41294;42.666;23.350;2023-02-13T01:24:36;96793.22;;;1.42;99.65
55424;BME280;41294;42.666;23.350;2023-02-13T01:27:02;96801.94;;;1.50;98.96
55424;BME280;41294;42.666;23.350;2023-02-13T01:29:27;96800.59;;;1.40;99.54
55424;BME280;41294;42.666;23.350;2023-02-13T01:31:53;96792.09;;;1.55;98.99
55424;BME280;41294;42.666;23.350;2023-02-13T01:34:18;96801.13;;;1.61;99.34
55424;BME280;41294;42.666;23.350;2023-02-13T01:36:44;96802.06;;;1.68;99.00
55424;BME280;41294;42.666;23.350;2023-02-13T01:39:11;96799.88;;;1.70;98.78
55424;BME280;41294;42.666;23.350;2023-02-13T01:41:37;96799.63;;;1.75;99.12
55424;BME280;41294;42.666;23.350;2023-02-13T01:44:43;96804.72;;;1.87;98.35
55424;BME280;41294;42.666;23.350;2023-02-13T01:46:48;96804.66;;;1.84;98.23
55424;BME280;41294;42.666;23.350;2023-02-13T01:49:17;96809.41;;;1.97;98.01
55424;BME280;41294;42.666;23.350;2023-02-13T01:51:44;96808.72;;;2.00;97.59
55424;BME280;41294;42.666;23.350;2023-02-13T01:54:17;96812.91;;;2.05;97.66
55424;BME280;41294;42.666;23.350;2023-02-13T01:56:54;96809.56;;;2.04;97.10
55424;BME280;41294;42.666;23.350;2023-02-13T01:59:30;96816.34;;;2.09;97.50
55424;BME280;41294;42.666;23.350;2023-02-13T02:01:59;96812.56;;;2.06;97.51
55424;BME280;41294;42.666;23.350;2023-02-13T02:04:31;96810.41;;;2.08;97.52
55424;BME280;41294;42.666;23.350;2023-02-13T02:07:02;96811.66;;;2.14;97.43
55424;BME280;41294;42.666;23.350;2023-02-13T02:09:33;96813.16;;;2.15;96.84
55424;BME280;41294;42.666;23.350;2023-02-13T02:12:07;96803.59;;;2.19;96.37
55424;BME280;41294;42.666;23.350;2023-02-13T02:14:34;96805.06;;;2.01;97.01
55424;BME280;41294;42.666;23.350;2023-02-13T02:17:00;96808.56;;;2.09;97.21
55424;BME280;41294;42.666;23.350;2023-02-13T02:22:38;96804.13;;;2.09;96.81
55424;BME280;41294;42.666;23.350;2023-02-13T02:39:20;96807.72;;;2.20;95.81
55424;BME280;41294;42.666;23.350;2023-02-13T02:44:31;96821.41;;;2.02;96.92
55424;BME280;41294;42.666;23.350;2023-02-13T02:49:50;96821.78;;;2.19;95.96
55424;BME280;41294;42.666;23.350;2023-02-13T02:52:33;96830.66;;;2.18;95.70
55424;BME280;41294;42.666;23.350;2023-02-13T02:55:59;96836.78;;;2.10;95.49
55424;BME280;41294;42.666;23.350;2023-02-13T02:58:11;96835.69;;;2.11;95.29
55424;BME280;41294;42.666;23.350;2023-02-13T03:00:59;96830.34;;;2.04;95.67
55424;BME280;41294;42.666;23.350;2023-02-13T03:03:45;96839.81;;;1.97;96.15
55424;BME280;41294;42.666;23.350;2023-02-13T03:06:42;96834.78;;;2.04;96.23
55424;BME280;41294;42.666;23.350;2023-02-13T03:09:14;96833.19;;;1.99;96.55
55424;BME280;41294;42.666;23.350;2023-02-13T03:12:01;96832.69;;;2.09;95.66
55424;BME280;41294;42.666;23.350;2023-02-13T03:14:45;96830.59;;;1.84;97.24
55424;BME280;41294;42.666;23.350;2023-02-13T03:17:13;96828.75;;;2.00;96.41
55424;BME280;41294;42.666;23.350;2023-02-13T03:29:45;96836.53;;;2.15;95.07
55424;BME280;41294;42.666;23.350;2023-02-13T03:32:46;96839.88;;;2.16;95.65
55424;BME280;41294;42.666;23.350;2023-02-13T03:35:37;96838.22;;;2.23;95.29
55424;BME280;41294;42.666;23.350;2023-02-13T03:38:45;96837.78;;;2.21;95.23
55424;BME280;41294;42.666;23.350;2023-02-13T03:41:19;96841.47;;;2.20;95.26
55424;BME280;41294;42.666;23.350;2023-02-13T03:46:47;96831.66;;;2.29;95.17
55424;BME280;41294;42.666;23.350;2023-02-13T03:49:22;96838.38;;;2.30;94.69
55424;BME280;41294;42.666;23.350;2023-02-13T03:54:58;96830.06;;;2.25;94.61
55424;BME280;41294;42.666;23.350;2023-02-13T03:57:44;96832.81;;;2.32;94.15
55424;BME280;41294;42.666;23.350;2023-02-13T04:00:35;96832.47;;;2.33;93.36
55424;BME280;41294;42.666;23.350;2023-02-13T04:03:12;96836.84;;;2.29;93.46
55424;BME280;41294;42.666;23.350;2023-02-13T04:05:43;96831.16;;;2.39;92.87
55424;BME280;41294;42.666;23.350;2023-02-13T04:08:09;96831.66;;;1.98;94.72
55424;BME280;41294;42.666;23.350;2023-02-13T04:10:44;96833.59;;;2.17;94.72
55424;BME280;41294;42.666;23.350;2023-02-13T04:13:17;96838.44;;;2.18;94.31
55424;BME280;41294;42.666;23.350;2023-02-13T04:16:09;96832.00;;;2.28;93.70
55424;BME280;41294;42.666;23.350;2023-02-13T04:18:37;96839.38;;;2.26;93.53
55424;BME280;41294;42.666;23.350;2023-02-13T04:21:04;96830.06;;;2.25;93.48
55424;BME280;41294;42.666;23.350;2023-02-13T04:23:30;96836.63;;;2.19;93.56
55424;BME280;41294;42.666;23.350;2023-02-13T04:25:56;96843.88;;;2.29;93.40
55424;BME280;41294;42.666;23.350;2023-02-13T04:28:24;96845.66;;;2.09;93.94
55424;BME280;41294;42.666;23.350;2023-02-13T04:30:49;96836.53;;;2.15;94.03
55424;BME280;41294;42.666;23.350;2023-02-13T04:33:14;96842.63;;;2.23;94.04
55424;BME280;41294;42.666;23.350;2023-02-13T04:35:40;96842.06;;;2.29;93.16
55424;BME280;41294;42.666;23.350;2023-02-13T04:38:05;96835.06;;;2.33;93.01
55424;BME280;41294;42.666;23.350;2023-02-13T04:40:31;96827.56;;;2.28;93.14
55424;BME280;41294;42.666;23.350;2023-02-13T04:42:56;96838.94;;;2.39;92.58
55424;BME280;41294;42.666;23.350;2023-02-13T04:45:21;96830.16;;;2.28;92.90
55424;BME280;41294;42.666;23.350;2023-02-13T04:47:51;96834.50;;;2.24;92.62
55424;BME280;41294;42.666;23.350;2023-02-13T04:50:17;96834.34;;;2.17;92.88
55424;BME280;41294;42.666;23.350;2023-02-13T04:52:43;96840.81;;;2.23;92.00
55424;BME280;41294;42.666;23.350;2023-02-13T04:55:08;96841.91;;;2.22;90.84
55424;BME280;41294;42.666;23.350;2023-02-13T04:57:34;96853.66;;;1.43;92.19
55424;BME280;41294;42.666;23.350;2023-02-13T04:59:59;96857.91;;;1.08;92.95
55424;BME280;41294;42.666;23.350;2023-02-13T05:02:24;96859.84;;;0.60;96.51
55424;BME280;41294;42.666;23.350;2023-02-13T05:04:51;96861.44;;;0.76;96.59
55424;BME280;41294;42.666;23.350;2023-02-13T05:07:17;96854.84;;;0.79;96.86
55424;BME280;41294;42.666;23.350;2023-02-13T05:09:42;96870.47;;;0.94;96.29
55424;BME280;41294;42.666;23.350;2023-02-13T05:12:07;96867.91;;;0.82;95.98
55424;BME280;41294;42.666;23.350;2023-02-13T05:14:33;96869.91;;;0.37;97.71
55424;BME280;41294;42.666;23.350;2023-02-13T05:16:58;96871.41;;;0.02;100.00
55424;BME280;41294;42.666;23.350;2023-02-13T05:19:24;96865.13;;;-0.08;100.00
55424;BME280;41294;42.666;23.350;2023-02-13T05:21:49;96867.47;;;-0.27;100.00
55424;BME280;41294;42.666;23.350;2023-02-13T05:24:33;96877.75;;;-0.07;100.00
55424;BME280;41294;42.666;23.350;2023-02-13T05:26:59;96878.97;;;-0.04;100.00
55424;BME280;41294;42.666;23.350;2023-02-13T05:29:24;96878.25;;;-0.25;100.00
55424;BME280;41294;42.666;23.350;2023-02-13T05:31:53;96877.38;;;-0.29;100.00
55424;BME280;41294;42.666;23.350;2023-02-13T05:34:21;96878.06;;;-0.08;100.00
55424;BME280;41294;42.666;23.350;2023-02-13T05:36:47;96878.06;;;-0.08;100.00
55424;BME280;41294;42.666;23.350;2023-02-13T05:39:13;96876.13;;;-0.11;100.00
55424;BME280;41294;42.666;23.350;2023-02-13T05:41:40;96884.88;;;-0.04;100.00
55424;BME280;41294;42.666;23.350;2023-02-13T05:44:05;96886.28;;;0.05;100.00
55424;BME280;41294;42.666;23.350;2023-02-13T05:46:31;96882.84;;;0.01;100.00
55424;BME280;41294;42.666;23.350;2023-02-13T05:48:56;96886.94;;;0.26;100.00
55424;BME280;41294;42.666;23.350;2023-02-13T05:51:22;96881.88;;;0.06;100.00
55424;BME280;41294;42.666;23.350;2023-02-13T05:53:47;96882.00;;;0.21;100.00
55424;BME280;41294;42.666;23.350;2023-02-13T05:56:16;96894.47;;;0.07;100.00
55424;BME280;41294;42.666;23.350;2023-02-13T05:58:42;96896.00;;;0.32;100.00
55424;BME280;41294;42.666;23.350;2023-02-13T06:01:09;96897.06;;;-0.04;100.00
55424;BME280;41294;42.666;23.350;2023-02-13T06:03:34;96888.09;;;-0.07;100.00
55424;BME280;41294;42.666;23.350;2023-02-13T06:06:00;96893.41;;;0.08;100.00
55424;BME280;41294;42.666;23.350;2023-02-13T06:08:25;96912.41;;;0.12;100.00
55424;BME280;41294;42.666;23.350;2023-02-13T06:10:51;96905.94;;;0.18;100.00
55424;BME280;41294;42.666;23.350;2023-02-13T06:13:17;96909.19;;;0.27;100.00
55424;BME280;41294;42.666;23.350;2023-02-13T06:15:43;96906.13;;;0.13;100.00
55424;BME280;41294;42.666;23.350;2023-02-13T06:18:08;96911.53;;;0.08;100.00
55424;BME280;41294;42.666;23.350;2023-02-13T06:20:35;96916.72;;;0.20;100.00
55424;BME280;41294;42.666;23.350;2023-02-13T06:23:02;96913.72;;;0.30;100.00
55424;BME280;41294;42.666;23.350;2023-02-13T06:25:27;96917.09;;;-0.02;100.00
55424;BME280;41294;42.666;23.350;2023-02-13T06:27:53;96906.59;;;0.27;100.00
55424;BME280;41294;42.666;23.350;2023-02-13T06:30:19;96912.31;;;0.33;100.00
55424;BME280;41294;42.666;23.350;2023-02-13T06:32:45;96918.88;;;0.66;100.00
55424;BME280;41294;42.666;23.350;2023-02-13T06:35:11;96928.59;;;0.69;99.97
55424;BME280;41294;42.666;23.350;2023-02-13T06:37:37;96918.75;;;0.27;100.00
55424;BME280;41294;42.666;23.350;2023-02-13T06:40:05;96921.88;;;0.08;100.00
55424;BME280;41294;42.666;23.350;2023-02-13T06:42:31;96925.16;;;0.29;100.00
55424;BME280;41294;42.666;23.350;2023-02-13T06:44:56;96931.81;;;0.18;100.00
55424;BME280;41294;42.666;23.350;2023-02-13T06:47:22;96933.22;;;0.16;100.00
55424;BME280;41294;42.666;23.350;2023-02-13T06:49:47;96926.88;;;0.37;100.00
55424;BME280;41294;42.666;23.350;2023-02-13T06:52:12;96930.53;;;0.72;100.00
55424;BME280;41294;42.666;23.350;2023-02-13T06:54:38;96917.16;;;0.58;99.75
55424;BME280;41294;42.666;23.350;2023-02-13T06:57:04;96926.63;;;0.78;99.16
55424;BME280;41294;42.666;23.350;2023-02-13T06:59:30;96921.25;;;0.83;98.87
55424;BME280;41294;42.666;23.350;2023-02-13T07:01:55;96919.28;;;0.92;98.36
55424;BME280;41294;42.666;23.350;2023-02-13T07:04:21;96920.56;;;0.86;97.42
55424;BME280;41294;42.666;23.350;2023-02-13T07:06:46;96918.22;;;0.81;98.86
55424;BME280;41294;42.666;23.350;2023-02-13T07:09:11;96907.34;;;1.15;97.50
55424;BME280;41294;42.666;23.350;2023-02-13T07:11:38;96911.56;;;1.47;95.54
55424;BME280;41294;42.666;23.350;2023-02-13T07:14:06;96908.41;;;1.53;95.39
55424;BME280;41294;42.666;23.350;2023-02-13T07:16:31;96914.81;;;1.44;94.90
55424;BME280;41294;42.666;23.350;2023-02-13T07:18:57;96918.69;;;1.50;95.36
55424;BME280;41294;42.666;23.350;2023-02-13T07:21:22;96918.69;;;1.50;95.02
55424;BME280;41294;42.666;23.350;2023-02-13T07:23:47;96917.44;;;1.86;93.76
55424;BME280;41294;42.666;23.350;2023-02-13T07:26:13;96917.25;;;1.95;92.80
55424;BME280;41294;42.666;23.350;2023-02-13T07:28:40;96918.97;;;1.60;93.55
55424;BME280;41294;42.666;23.350;2023-02-13T07:31:06;96917.59;;;1.93;92.54
55424;BME280;41294;42.666;23.350;2023-02-13T07:33:32;96925.09;;;2.26;91.49
55424;BME280;41294;42.666;23.350;2023-02-13T07:35:58;96917.13;;;2.34;90.04
55424;BME280;41294;42.666;23.350;2023-02-13T07:38:24;96922.59;;;2.44;90.26
55424;BME280;41294;42.666;23.350;2023-02-13T07:40:49;96932.38;;;2.51;88.85
55424;BME280;41294;42.666;23.350;2023-02-13T07:43:15;96920.13;;;2.67;88.95
55424;BME280;41294;42.666;23.350;2023-02-13T07:45:41;96923.31;;;2.95;87.77
55424;BME280;41294;42.666;23.350;2023-02-13T07:48:06;96931.81;;;2.92;86.68
55424;BME280;41294;42.666;23.350;2023-02-13T07:50:32;96923.16;;;3.03;86.19
55424;BME280;41294;42.666;23.350;2023-02-13T07:52:59;96923.81;;;3.00;85.86
55424;BME280;41294;42.666;23.350;2023-02-13T07:55:26;96928.69;;;3.21;85.41
55424;BME280;41294;42.666;23.350;2023-02-13T07:57:51;96916.53;;;3.24;84.32
55424;BME280;41294;42.666;23.350;2023-02-13T08:00:17;96912.97;;;3.51;84.22
55424;BME280;41294;42.666;23.350;2023-02-13T08:02:43;96925.44;;;3.23;83.66
55424;BME280;41294;42.666;23.350;2023-02-13T08:05:09;96923.31;;;3.29;83.63
55424;BME280;41294;42.666;23.350;2023-02-13T08:07:34;96917.91;;;3.37;83.48
55424;BME280;41294;42.666;23.350;2023-02-13T08:10:00;96916.72;;;3.54;82.84
55424;BME280;41294;42.666;23.350;2023-02-13T08:12:46;96914.13;;;3.54;83.03
55424;BME280;41294;42.666;23.350;2023-02-13T08:15:13;96916.13;;;3.60;82.73
55424;BME280;41294;42.666;23.350;2023-02-13T08:17:39;96914.19;;;3.57;82.26
55424;BME280;41294;42.666;23.350;2023-02-13T08:20:06;96913.56;;;3.83;82.13
55424;BME280;41294;42.666;23.350;2023-02-13T08:22:32;96915.66;;;3.96;80.49
55424;BME280;41294;42.666;23.350;2023-02-13T08:24:58;96920.19;;;3.99;79.68
55424;BME280;41294;42.666;23.350;2023-02-13T08:27:23;96916.91;;;3.83;81.00
55424;BME280;41294;42.666;23.350;2023-02-13T08:29:49;96912.13;;;3.85;80.42
55424;BME280;41294;42.666;23.350;2023-02-13T08:32:15;96907.22;;;3.61;81.82
55424;BME280;41294;42.666;23.350;2023-02-13T08:34:40;96917.97;;;3.60;81.96
55424;BME280;41294;42.666;23.350;2023-02-13T08:37:06;96917.06;;;3.71;81.21
55424;BME280;41294;42.666;23.350;2023-02-13T08:39:31;96915.81;;;3.84;81.22
55424;BME280;41294;42.666;23.350;2023-02-13T08:41:57;96915.63;;;3.74;80.43
55424;BME280;41294;42.666;23.350;2023-02-13T08:44:22;96914.06;;;3.69;81.77
55424;BME280;41294;42.666;23.350;2023-02-13T08:46:47;96921.44;;;3.86;80.49
55424;BME280;41294;42.666;23.350;2023-02-13T08:49:13;96921.22;;;3.95;80.04
55424;BME280;41294;42.666;23.350;2023-02-13T08:51:38;96918.31;;;4.00;79.80
55424;BME280;41294;42.666;23.350;2023-02-13T08:54:04;96913.66;;;4.08;79.36
55424;BME280;41294;42.666;23.350;2023-02-13T08:56:29;96916.16;;;4.24;78.50
55424;BME280;41294;42.666;23.350;2023-02-13T08:58:55;96921.50;;;4.12;79.06
55424;BME280;41294;42.666;23.350;2023-02-13T09:01:20;96915.72;;;4.22;78.68
55424;BME280;41294;42.666;23.350;2023-02-13T09:03:48;96915.72;;;4.22;78.01
55424;BME280;41294;42.666;23.350;2023-02-13T09:06:13;96915.72;;;4.22;78.44
55424;BME280;41294;42.666;23.350;2023-02-13T09:08:39;96912.59;;;4.13;79.09
55424;BME280;41294;42.666;23.350;2023-02-13T09:11:04;96915.69;;;4.18;78.74
55424;BME280;41294;42.666;23.350;2023-02-13T09:13:33;96920.84;;;4.15;79.09
55424;BME280;41294;42.666;23.350;2023-02-13T09:16:00;96912.34;;;4.44;78.59
55424;BME280;41294;42.666;23.350;2023-02-13T09:18:26;96912.78;;;4.72;77.50
55424;BME280;41294;42.666;23.350;2023-02-13T09:21:06;96913.00;;;4.86;75.82
55424;BME280;41294;42.666;23.350;2023-02-13T09:23:34;96907.28;;;4.77;76.12
55424;BME280;41294;42.666;23.350;2023-02-13T09:26:02;96902.44;;;4.79;75.55
55424;BME280;41294;42.666;23.350;2023-02-13T09:28:29;96910.28;;;5.04;75.19
55424;BME280;41294;42.666;23.350;2023-02-13T09:30:55;96899.59;;;5.16;74.50
55424;BME280;41294;42.666;23.350;2023-02-13T09:33:22;96894.31;;;5.09;73.98
55424;BME280;41294;42.666;23.350;2023-02-13T09:35:48;96895.63;;;5.26;73.08
55424;BME280;41294;42.666;23.350;2023-02-13T09:38:14;96890.91;;;5.71;73.18
55424;BME280;41294;42.666;23.350;2023-02-13T09:40:50;96889.66;;;5.91;71.24
55424;BME280;41294;42.666;23.350;2023-02-13T09:43:29;96885.47;;;5.83;71.31
55424;BME280;41294;42.666;23.350;2023-02-13T09:46:00;96889.56;;;6.20;70.94
55424;BME280;41294;42.666;23.350;2023-02-13T09:48:32;96875.34;;;6.18;69.95
55424;BME280;41294;42.666;23.350;2023-02-13T09:50:59;96881.94;;;6.05;70.01
55424;BME280;41294;42.666;23.350;2023-02-13T09:53:26;96882.41;;;6.14;71.02
55424;BME280;41294;42.666;23.350;2023-02-13T09:58:48;96868.81;;;7.02;67.46
55424;BME280;41294;42.666;23.350;2023-02-13T10:06:52;96859.38;;;8.03;62.48
55424;BME280;41294;42.666;23.350;2023-02-13T10:17:44;96840.22;;;9.72;58.00
55424;BME280;41294;42.666;23.350;2023-02-13T10:20:21;96835.56;;;9.96;57.14
55424;BME280;41294;42.666;23.350;2023-02-13T10:22:55;96827.84;;;10.26;55.22
55424;BME280;41294;42.666;23.350;2023-02-13T10:25:27;96827.19;;;10.59;54.53
55424;BME280;41294;42.666;23.350;2023-02-13T10:28:06;96816.63;;;10.63;54.21
55424;BME280;41294;42.666;23.350;2023-02-13T10:30:48;96817.50;;;10.86;52.47
55424;BME280;41294;42.666;23.350;2023-02-13T10:33:24;96811.84;;;10.51;54.01
55424;BME280;41294;42.666;23.350;2023-02-13T10:36:02;96805.56;;;9.90;54.18
55424;BME280;41294;42.666;23.350;2023-02-13T10:38:31;96802.88;;;9.97;54.19
55424;BME280;41294;42.666;23.350;2023-02-13T10:47:21;96784.81;;;9.45;55.86
55424;BME280;41294;42.666;23.350;2023-02-13T10:53:11;96780.63;;;10.12;55.29
55424;BME280;41294;42.666;23.350;2023-02-13T11:01:45;96780.78;;;11.05;52.25
55424;BME280;41294;42.666;23.350;2023-02-13T11:04:01;96774.22;;;10.50;51.91
55424;BME280;41294;42.666;23.350;2023-02-13T11:06:28;96770.97;;;10.39;52.01
55424;BME280;41294;42.666;23.350;2023-02-13T11:08:54;96761.75;;;10.91;50.82
55424;BME280;41294;42.666;23.350;2023-02-13T11:11:31;96770.00;;;10.96;50.94
55424;BME280;41294;42.666;23.350;2023-02-13T11:19:23;96752.44;;;11.13;49.19
55424;BME280;41294;42.666;23.350;2023-02-13T11:21:54;96745.19;;;10.90;50.03
55424;BME280;41294;42.666;23.350;2023-02-13T11:24:22;96734.25;;;11.22;49.79
55424;BME280;41294;42.666;23.350;2023-02-13T11:26:56;96725.88;;;11.30;49.61
55424;BME280;41294;42.666;23.350;2023-02-13T11:29:31;96722.94;;;11.77;48.81
55424;BME280;41294;42.666;23.350;2023-02-13T11:34:44;96702.63;;;11.97;47.63
55424;BME280;41294;42.666;23.350;2023-02-13T11:39:39;96694.75;;;11.71;47.76
55424;BME280;41294;42.666;23.350;2023-02-13T11:42:25;96696.50;;;11.58;48.21
55424;BME280;41294;42.666;23.350;2023-02-13T11:44:55;96700.22;;;12.06;47.80
55424;BME280;41294;42.666;23.350;2023-02-13T11:47:40;96682.16;;;12.24;46.76
55424;BME280;41294;42.666;23.350;2023-02-13T11:50:31;96680.75;;;11.97;46.96
55424;BME280;41294;42.666;23.350;2023-02-13T11:58:23;96661.53;;;11.50;48.08
55424;BME280;41294;42.666;23.350;2023-02-13T12:01:08;96657.34;;;11.99;47.83
55424;BME280;41294;42.666;23.350;2023-02-13T12:03:34;96646.56;;;12.32;46.00
55424;BME280;41294;42.666;23.350;2023-02-13T12:06:13;96651.53;;;11.65;47.15
55424;BME280;41294;42.666;23.350;2023-02-13T12:08:41;96651.63;;;11.09;47.12
55424;BME280;41294;42.666;23.350;2023-02-13T12:12:05;96641.41;;;11.37;47.94
55424;BME280;41294;42.666;23.350;2023-02-13T12:14:17;96645.84;;;11.66;46.00
55424;BME280;41294;42.666;23.350;2023-02-13T12:16:54;96644.56;;;11.74;45.62
55424;BME280;41294;42.666;23.350;2023-02-13T12:19:29;96642.94;;;11.84;45.52
55424;BME280;41294;42.666;23.350;2023-02-13T12:36:03;96620.47;;;11.27;45.56
55424;BME280;41294;42.666;23.350;2023-02-13T12:44:15;96617.13;;;11.45;44.17
55424;BME280;41294;42.666;23.350;2023-02-13T12:47:00;96615.69;;;11.18;44.43
55424;BME280;41294;42.666;23.350;2023-02-13T12:52:50;96604.06;;;11.16;44.47
55424;BME280;41294;42.666;23.350;2023-02-13T13:03:50;96593.59;;;11.12;44.20
55424;BME280;41294;42.666;23.350;2023-02-13T13:06:34;96589.50;;;11.08;44.24
55424;BME280;41294;42.666;23.350;2023-02-13T13:14:46;96592.09;;;10.85;45.06
55424;BME280;41294;42.666;23.350;2023-02-13T13:17:39;96584.28;;;10.78;45.09
55424;BME280;41294;42.666;23.350;2023-02-13T13:22:59;96590.59;;;10.58;45.15
55424;BME280;41294;42.666;23.350;2023-02-13T13:25:35;96585.19;;;10.08;46.52
55424;BME280;41294;42.666;23.350;2023-02-13T13:28:16;96574.25;;;10.43;45.68
55424;BME280;41294;42.666;23.350;2023-02-13T13:30:44;96569.22;;;10.26;46.07
55424;BME280;41294;42.666;23.350;2023-02-13T13:33:18;96567.88;;;10.11;46.52
55424;BME280;41294;42.666;23.350;2023-02-13T13:39:18;96560.59;;;9.88;47.52
55424;BME280;41294;42.666;23.350;2023-02-13T13:52:29;96561.53;;;8.84;49.81
55424;BME280;41294;42.666;23.350;2023-02-13T13:54:57;96569.03;;;8.82;50.09
55424;BME280;41294;42.666;23.350;2023-02-13T14:02:37;96553.75;;;8.70;50.60
55424;BME280;41294;42.666;23.350;2023-02-13T14:07:39;96566.38;;;8.89;50.66
55424;BME280;41294;42.666;23.350;2023-02-13T14:18:20;96553.81;;;8.63;51.52
55424;BME280;41294;42.666;23.350;2023-02-13T14:23:46;96543.41;;;8.46;51.89
55424;BME280;41294;42.666;23.350;2023-02-13T14:28:55;96535.56;;;8.42;52.42
55424;BME280;41294;42.666;23.350;2023-02-13T14:31:27;96530.31;;;8.42;52.18
55424;BME280;41294;42.666;23.350;2023-02-13T14:33:59;96533.75;;;8.32;52.73
55424;BME280;41294;42.666;23.350;2023-02-13T14:36:28;96531.94;;;8.12;53.46
55424;BME280;41294;42.666;23.350;2023-02-13T14:40:07;96527.47;;;8.06;53.87
55424;BME280;41294;42.666;23.350;2023-02-13T14:44:26;96531.19;;;8.18;54.21
55424;BME280;41294;42.666;23.350;2023-02-13T14:46:55;96537.47;;;8.35;53.90
55424;BME280;41294;42.666;23.350;2023-02-13T14:49:25;96528.88;;;8.34;53.73
55424;BME280;41294;42.666;23.350;2023-02-13T14:51:57;96533.75;;;8.29;53.45
55424;BME280;41294;42.666;23.350;2023-02-13T14:56:52;96537.50;;;8.31;53.73
55424;BME280;41294;42.666;23.350;2023-02-13T14:59:22;96524.06;;;8.12;53.71
55424;BME280;41294;42.666;23.350;2023-02-13T15:01:52;96521.09;;;8.07;54.45
55424;BME280;41294;42.666;23.350;2023-02-13T15:04:39;96533.88;;;8.01;54.44
55424;BME280;41294;42.666;23.350;2023-02-13T15:07:13;96527.56;;;7.85;55.71
55424;BME280;41294;42.666;23.350;2023-02-13T15:09:39;96529.06;;;7.82;54.96
55424;BME280;41294;42.666;23.350;2023-02-13T15:12:33;96533.56;;;7.85;55.27
55424;BME280;41294;42.666;23.350;2023-02-13T15:15:00;96530.19;;;7.85;55.42
55424;BME280;41294;42.666;23.350;2023-02-13T15:17:33;96535.78;;;7.90;55.36
55424;BME280;41294;42.666;23.350;2023-02-13T15:20:22;96530.59;;;7.73;55.38
55424;BME280;41294;42.666;23.350;2023-02-13T15:22:48;96531.75;;;7.68;55.90
55424;BME280;41294;42.666;23.350;2023-02-13T15:25:36;96532.16;;;7.63;55.90
55424;BME280;41294;42.666;23.350;2023-02-13T15:28:05;96536.28;;;7.50;55.89
55424;BME280;41294;42.666;23.350;2023-02-13T15:30:36;96536.28;;;7.47;55.93
55424;BME280;41294;42.666;23.350;2023-02-13T15:33:23;96534.09;;;7.21;56.89
55424;BME280;41294;42.666;23.350;2023-02-13T15:36:00;96537.81;;;7.24;56.80
55424;BME280;41294;42.666;23.350;2023-02-13T15:38:34;96539.69;;;7.16;57.13
55424;BME280;41294;42.666;23.350;2023-02-13T15:41:23;96546.03;;;7.15;57.38
55424;BME280;41294;42.666;23.350;2023-02-13T15:43:55;96541.19;;;7.14;57.36
55424;BME280;41294;42.666;23.350;2023-02-13T15:48:55;96543.47;;;6.91;58.19
55424;BME280;41294;42.666;23.350;2023-02-13T15:51:27;96550.53;;;6.90;58.68
55424;BME280;41294;42.666;23.350;2023-02-13T15:53:59;96544.97;;;6.92;58.37
55424;BME280;41294;42.666;23.350;2023-02-13T15:56:26;96548.31;;;6.85;58.60
55424;BME280;41294;42.666;23.350;2023-02-13T15:58:53;96553.91;;;6.73;58.68
55424;BME280;41294;42.666;23.350;2023-02-13T16:01:19;96555.03;;;6.72;59.16
55424;BME280;41294;42.666;23.350;2023-02-13T16:03:48;96549.03;;;6.61;59.02